Aérodrome :
LOGIN :

S'inscrire | Disclaimer

   EN    FR    IT 

 










Légende :    VFR   VFR Marginal   IFR   IFR Intensif   IFR Très Intensif
Visi : 
Plafond : 
>= 8 km
>= 3000ft
5 à 8 km
1000 à 3000 ft
1500m à 5 km
500 à 1000 ft
800 à 1500m
200 à 500 ft
< 800m
< 200 ft
Symboles :   Orages  Brouillard  Fortes neiges  Fortes précipitations  Vent > 20 kt
SIGMETs :   Divers  Orages  Givrage  Turbulence  Onde Orograph.  Cendres Volcan.






- Altitude de l'aérodrome : 3360 ft
- Code IATA : QSF


DAAS - 8 Mai 45

DERNIER METAR :
  • 072300Z 05003KT CAVOK 09/04 Q1025

METARs EXPIRÉS :
  • 072200Z 02005KT 9999 FEW026 10/03 Q1025
  • 072100Z 03004KT 9999 SCT030 11/01 Q1025

TAF TAF DAAS
Valide du 07 à 18h jusqu'au 08 à 18h UTC


071700Z 0718/0818 32006KT 9999 FEW030 SCT100
TEMPO 0718/0720 36012KT 5000 -TSRA FEW026CB BKN033
PROB30
TEMPO 0802/0807 2000 BR BKN010
TEMPO 0813/0818 34012KT FEW026CB BKN033



MET'MAP, la Météo Aéronautique d'un coup d'oeil ! - Copyright ORBIFLY Décembre 2007 - Disclaimer

ORBIFLY MET'MAP TEAM :

Programmation & Développement : Alexandra Zaïnal
Sur une idée originale de : Baudouin d'Aumeries
Assistance à la programmation : Marc-Olivier Méhu
Soutien technique & logistique : Manuel Goepfert

Contact : metmap@orbifly.com




SOURCES & CREDITS :

   NOAA